Biggs Army Air Field (Fort Bliss)
KBIF : now visible

Airfield :











YOU CAN JOIN US ON...

 
LOGIN :

Register | Disclaimer

   EN    FR    IT 

 









Legend :    VFR   Marginal VFR   IFR   Intensive IFR   Very Intensive IFR
Visi :
Ceiling :
>= 8 km
>= 3000ft
5 to 8 km
1000 to 3000 ft
1500m to 5 km
500 to 1000 ft
800 to 1500m
200 to 500 ft
< 800m
< 200 ft
Symbols :   Thunderstorms  Fog  Heavy snow  Heavy precipitations  Wind > 20 kt






- Airport Elevation : 3946 ft


KBIF - Biggs Army Air Field (Fort Bliss)

CURRENT METAR :
  • 062258Z AUTO 25011KT 10SM FEW210 23/M05 A2998 RMK AO2 SLP097 T02341047 $

EXPIRED METARs :
  • 062158Z AUTO 24010G17KT 10SM SCT210 24/M05 A2998 RMK AO2 SLP094 T02391047 $
  • 062058Z AUTO 22011KT 10SM FEW210 24/M02 A2998 RMK AO2 SLP099 T02361020 57015 $

TAF TAF KBIF
Valid from the 06 at 22:00 until the 08 at 04:00 UTC


062203Z 0622/0804 21012G18KT 9999 FEW210 QNH2997INS
TEMPO 0622/0701 22015G25KT 500009
BECMG 0701/0702 23009KT 9999 FEW120 QNH3003INS
BECMG 0720/0721 27012G18KT 9999 SKC QNH2999INS TX26/0722Z TN07/0713Z



MET'MAP, your aeronautical weather chart ! - Copyright ORBIFLY December 2007 - Disclaimer

ORBIFLY MET'MAP TEAM :

Programming & Development : Alexandra Zaïnal
Concept & original design : Baudouin d'Aumeries
Assistance for programming : Marc-Olivier Méhu
Technical & hardware support : Manuel Goepfert

Contact : metmap@orbifly.com




SOURCES & CREDITS :

   NOAA       Earth
Advisory